Time;durP1;ratioP1;P1;durP2;ratioP2;P2;SDS_P1;SDS_P2;PMS_P1;PMS_P2;Temp;Humidity;BMP_temperature;BMP_pressure;BME280_temperature;BME280_humidity;BME280_pressure;Samples;Min_cycle;Max_cycle;Signal;HPM_P1;HPM_P2
2023/01/18 00:00:42;;;;;;;;;;;19.10;43.00;;;;;;5051501;28;20376;-64
2023/01/18 00:03:11;;;;;;;;;;;19.10;43.00;;;;;;5049873;28;19924;-63
2023/01/18 00:05:40;;;;;;;;;;;19.10;43.30;;;;;;5051357;28;19924;-63
2023/01/18 00:08:06;;;;;;;;;;;19.10;43.00;;;;;;5052320;28;19947;-65
2023/01/18 00:10:33;;;;;;;;;;;19.10;43.00;;;;;;5050737;28;19920;-63
2023/01/18 00:13:00;;;;;;;;;;;19.10;43.00;;;;;;5053588;28;19925;-63
2023/01/18 00:15:26;;;;;;;;;;;19.10;42.90;;;;;;5050311;28;19974;-67
2023/01/18 00:17:55;;;;;;;;;;;19.10;42.90;;;;;;5050675;28;19927;-64
2023/01/18 00:20:22;;;;;;;;;;;19.10;42.90;;;;;;5052164;28;19921;-63
2023/01/18 00:22:49;;;;;;;;;;;19.10;42.90;;;;;;5050691;28;19929;-62
2023/01/18 00:25:16;;;;;;;;;;;19.10;42.90;;;;;;5052357;28;19975;-65
2023/01/18 00:27:44;;;;;;;;;;;19.10;42.90;;;;;;5047816;28;19921;-64
2023/01/18 00:30:12;;;;;;;;;;;19.10;42.90;;;;;;5050695;28;19921;-62
2023/01/18 00:32:38;;;;;;;;;;;19.10;42.80;;;;;;5053331;28;19928;-63
2023/01/18 00:35:07;;;;;;;;;;;19.10;42.80;;;;;;5052653;28;19975;-67
2023/01/18 00:37:34;;;;;;;;;;;19.10;43.40;;;;;;5050110;28;20390;-63
2023/01/18 00:40:01;;;;;;;;;;;19.10;42.80;;;;;;5051905;28;19929;-64
2023/01/18 00:45:12;;;;;;;;;;;19.10;42.70;;;;;;5053681;28;20366;-63
2023/01/18 00:47:38;;;;;;;;;;;19.10;42.70;;;;;;5051179;28;19921;-62
2023/01/18 00:50:08;;;;;;;;;;;19.10;42.70;;;;;;5051953;28;19920;-65
2023/01/18 00:52:36;;;;;;;;;;;19.10;42.70;;;;;;5059664;28;19931;-63
2023/01/18 00:55:02;;;;;;;;;;;19.10;42.70;;;;;;5050376;28;19955;-63
2023/01/18 00:57:29;;;;;;;;;;;19.10;42.70;;;;;;5053004;28;19974;-64
2023/01/18 00:59:56;;;;;;;;;;;19.10;42.60;;;;;;5059756;28;19943;-62
2023/01/18 01:02:23;;;;;;;;;;;19.10;42.60;;;;;;5047865;28;20015;-62
2023/01/18 01:07:36;;;;;;;;;;;19.10;42.60;;;;;;5075645;28;19932;-63
2023/01/18 01:10:07;;;;;;;;;;;19.10;42.60;;;;;;5049468;28;20262;-62
2023/01/18 01:26:17;;;;;;;;;;;19.10;42.50;;;;;;5050460;28;19928;-63
2023/01/18 01:28:44;;;;;;;;;;;19.10;42.50;;;;;;5045878;28;19933;-63
2023/01/18 01:31:11;;;;;;;;;;;19.00;42.40;;;;;;5051923;28;19970;-65
2023/01/18 01:33:37;;;;;;;;;;;19.00;42.40;;;;;;5050896;28;19959;-62
2023/01/18 01:36:05;;;;;;;;;;;19.00;42.40;;;;;;5073628;28;20069;-62
2023/01/18 01:38:34;;;;;;;;;;;19.10;42.50;;;;;;5049309;28;19925;-63
2023/01/18 01:41:01;;;;;;;;;;;19.00;42.30;;;;;;5052859;28;19931;-66
2023/01/18 01:43:41;;;;;;;;;;;19.00;42.30;;;;;;5049133;28;19924;-62
2023/01/18 01:46:12;;;;;;;;;;;19.00;42.30;;;;;;5054037;28;19936;-65
2023/01/18 01:48:39;;;;;;;;;;;19.00;42.30;;;;;;5073269;28;19929;-62
2023/01/18 01:51:05;;;;;;;;;;;19.10;42.40;;;;;;5050240;28;19921;-63
2023/01/18 01:53:34;;;;;;;;;;;19.00;42.30;;;;;;5050816;28;20363;-62
2023/01/18 01:56:00;;;;;;;;;;;19.00;42.30;;;;;;5048904;28;19925;-62
2023/01/18 01:58:27;;;;;;;;;;;19.00;42.20;;;;;;5047974;28;19936;-64
2023/01/18 02:00:54;;;;;;;;;;;19.00;42.20;;;;;;5049751;28;19924;-62
2023/01/18 02:03:21;;;;;;;;;;;19.00;42.20;;;;;;5049605;28;20106;-63
2023/01/18 02:05:49;;;;;;;;;;;19.00;42.20;;;;;;5049200;28;19929;-66
2023/01/18 02:08:21;;;;;;;;;;;19.00;42.20;;;;;;5047713;28;19925;-62
2023/01/18 02:10:49;;;;;;;;;;;19.00;42.20;;;;;;5050507;28;19925;-65
2023/01/18 02:13:16;;;;;;;;;;;19.00;42.20;;;;;;5078739;28;20367;-61
2023/01/18 02:15:44;;;;;;;;;;;19.00;42.20;;;;;;5048476;28;19927;-62
2023/01/18 02:18:13;;;;;;;;;;;19.00;42.10;;;;;;5044985;28;19952;-63
2023/01/18 02:21:03;;;;;;;;;;;19.00;42.10;;;;;;5049262;28;19921;-62
2023/01/18 02:23:34;;;;;;;;;;;19.00;42.10;;;;;;5048571;28;19963;-64
2023/01/18 02:26:16;;;;;;;;;;;19.00;42.10;;;;;;5050211;28;20026;-62
2023/01/18 02:28:44;;;;;;;;;;;19.00;42.10;;;;;;5042017;28;19967;-64
2023/01/18 02:31:13;;;;;;;;;;;19.00;42.10;;;;;;5049689;28;20277;-62
2023/01/18 02:33:42;;;;;;;;;;;19.00;42.60;;;;;;5049801;28;19925;-62
2023/01/18 02:36:09;;;;;;;;;;;19.00;42.00;;;;;;5051173;28;19979;-61
2023/01/18 02:38:37;;;;;;;;;;;19.00;42.00;;;;;;5046843;28;20335;-60
2023/01/18 02:41:06;;;;;;;;;;;19.00;42.00;;;;;;5050544;28;20358;-61
2023/01/18 02:46:33;;;;;;;;;;;19.00;42.00;;;;;;5049768;28;19925;-61
2023/01/18 02:49:01;;;;;;;;;;;19.00;41.90;;;;;;5050081;28;19959;-64
2023/01/18 02:51:27;;;;;;;;;;;19.00;41.90;;;;;;5048271;28;19966;-64
2023/01/18 02:53:54;;;;;;;;;;;19.00;41.90;;;;;;5050269;28;19974;-63
2023/01/18 02:56:21;;;;;;;;;;;19.00;41.90;;;;;;5047294;28;19921;-64
2023/01/18 02:58:49;;;;;;;;;;;19.00;41.90;;;;;;5050029;28;19975;-65
2023/01/18 03:01:17;;;;;;;;;;;19.00;41.90;;;;;;5056116;28;19920;-62
2023/01/18 03:03:46;;;;;;;;;;;19.00;41.90;;;;;;5054635;28;19921;-65
2023/01/18 03:06:13;;;;;;;;;;;19.00;41.90;;;;;;5053157;28;19925;-61
2023/01/18 03:08:40;;;;;;;;;;;19.00;41.90;;;;;;5053258;28;19971;-61
2023/01/18 03:11:08;;;;;;;;;;;19.00;41.80;;;;;;5054705;28;19935;-65
2023/01/18 03:13:37;;;;;;;;;;;19.00;41.80;;;;;;5053982;28;19921;-63
2023/01/18 03:16:04;;;;;;;;;;;19.00;41.80;;;;;;5053246;28;19994;-63
2023/01/18 03:18:33;;;;;;;;;;;19.00;41.80;;;;;;5050575;28;19921;-62
2023/01/18 03:21:04;;;;;;;;;;;19.00;41.80;;;;;;5054512;28;19971;-61
2023/01/18 03:23:41;;;;;;;;;;;19.00;41.80;;;;;;5054819;28;19939;-63
2023/01/18 03:26:08;;;;;;;;;;;19.00;41.70;;;;;;5055350;28;19943;-62
2023/01/18 03:34:08;;;;;;;;;;;19.00;41.70;;;;;;5053797;28;19921;-62
2023/01/18 03:36:37;;;;;;;;;;;19.00;41.70;;;;;;5050339;28;19921;-62
2023/01/18 03:39:05;;;;;;;;;;;19.00;41.70;;;;;;5054122;28;19920;-63
2023/01/18 03:41:32;;;;;;;;;;;18.90;41.60;;;;;;5050351;28;19928;-63
2023/01/18 03:43:59;;;;;;;;;;;19.00;41.70;;;;;;5052894;28;20293;-62
2023/01/18 03:46:26;;;;;;;;;;;18.90;41.60;;;;;;5051824;28;20255;-63
2023/01/18 03:48:53;;;;;;;;;;;18.90;41.60;;;;;;5050399;28;19948;-63
2023/01/18 03:51:21;;;;;;;;;;;18.90;41.60;;;;;;5053092;28;19978;-62
2023/01/18 03:53:50;;;;;;;;;;;18.90;41.60;;;;;;5053393;28;19927;-62
2023/01/18 03:56:19;;;;;;;;;;;18.90;41.60;;;;;;5052222;28;19925;-62
2023/01/18 03:58:45;;;;;;;;;;;18.90;41.60;;;;;;5051067;28;19921;-62
2023/01/18 04:01:12;;;;;;;;;;;18.90;41.50;;;;;;5059566;28;19924;-62
2023/01/18 04:03:39;;;;;;;;;;;18.90;41.50;;;;;;5053918;28;19925;-63
2023/01/18 04:06:06;;;;;;;;;;;18.90;41.50;;;;;;5052220;28;19928;-62
2023/01/18 04:08:32;;;;;;;;;;;18.90;41.50;;;;;;5050331;28;19935;-61
2023/01/18 04:11:00;;;;;;;;;;;18.90;41.50;;;;;;5052370;28;19943;-62
2023/01/18 04:13:27;;;;;;;;;;;18.90;41.50;;;;;;5051188;28;19924;-63
2023/01/18 04:15:54;;;;;;;;;;;18.90;41.50;;;;;;5052242;28;19925;-64
2023/01/18 04:18:20;;;;;;;;;;;18.90;41.50;;;;;;5051076;28;20274;-63
2023/01/18 04:20:55;;;;;;;;;;;18.90;41.50;;;;;;5054109;28;20355;-62
2023/01/18 04:23:22;;;;;;;;;;;18.90;41.50;;;;;;5062944;28;19970;-67
2023/01/18 04:25:49;;;;;;;;;;;18.90;41.40;;;;;;5051707;28;19955;-65
2023/01/18 04:28:24;;;;;;;;;;;18.90;41.40;;;;;;5051974;28;19929;-64
2023/01/18 04:30:50;;;;;;;;;;;18.90;41.40;;;;;;5080676;28;20022;-63
2023/01/18 04:33:19;;;;;;;;;;;18.90;41.40;;;;;;5050889;28;19952;-65
2023/01/18 04:35:46;;;;;;;;;;;18.90;41.40;;;;;;5050689;28;19920;-62
2023/01/18 04:38:13;;;;;;;;;;;18.90;41.40;;;;;;5050639;28;19970;-63
2023/01/18 04:40:39;;;;;;;;;;;18.90;41.40;;;;;;5051925;28;19933;-65
2023/01/18 04:43:06;;;;;;;;;;;18.90;41.40;;;;;;5052210;28;20042;-64
2023/01/18 04:45:34;;;;;;;;;;;18.90;41.30;;;;;;5051098;28;19924;-61
2023/01/18 04:48:01;;;;;;;;;;;18.90;41.30;;;;;;5051696;28;20309;-62
2023/01/18 04:50:28;;;;;;;;;;;18.90;41.30;;;;;;5051673;28;20062;-62
2023/01/18 04:52:55;;;;;;;;;;;18.90;41.30;;;;;;5049025;28;19928;-62
2023/01/18 04:55:22;;;;;;;;;;;18.90;41.30;;;;;;5054220;28;19984;-68
2023/01/18 04:57:51;;;;;;;;;;;18.90;41.30;;;;;;5055383;28;19947;-65
2023/01/18 05:00:18;;;;;;;;;;;18.90;41.30;;;;;;5051684;28;19928;-62
2023/01/18 05:02:47;;;;;;;;;;;18.90;41.20;;;;;;5049194;28;19924;-62
2023/01/18 05:05:13;;;;;;;;;;;18.90;41.30;;;;;;5054184;28;19931;-62
2023/01/18 05:07:40;;;;;;;;;;;18.90;41.20;;;;;;5051176;28;19925;-64
2023/01/18 05:10:07;;;;;;;;;;;18.90;41.20;;;;;;5050279;28;20363;-63
2023/01/18 05:12:34;;;;;;;;;;;18.90;41.20;;;;;;5048981;28;19921;-62
2023/01/18 05:15:01;;;;;;;;;;;18.90;41.20;;;;;;5051102;28;19976;-63
2023/01/18 05:17:29;;;;;;;;;;;18.90;41.10;;;;;;5051119;28;19920;-62
2023/01/18 05:19:57;;;;;;;;;;;18.90;41.10;;;;;;5078539;28;19921;-63
2023/01/18 05:22:24;;;;;;;;;;;18.90;41.10;;;;;;5051730;28;20417;-62
2023/01/18 05:24:51;;;;;;;;;;;18.90;41.10;;;;;;5048649;28;20409;-64
2023/01/18 05:27:17;;;;;;;;;;;18.90;41.70;;;;;;5051258;28;19962;-63
2023/01/18 05:29:44;;;;;;;;;;;18.90;41.10;;;;;;5051670;28;20313;-62
2023/01/18 05:32:11;;;;;;;;;;;18.90;41.10;;;;;;5050925;28;19929;-62
2023/01/18 05:34:38;;;;;;;;;;;18.90;41.10;;;;;;5059547;28;19920;-62
2023/01/18 05:37:06;;;;;;;;;;;18.90;41.00;;;;;;5057787;28;19970;-62
2023/01/18 05:39:33;;;;;;;;;;;18.90;41.10;;;;;;5050955;28;19928;-63
2023/01/18 05:41:59;;;;;;;;;;;18.90;41.00;;;;;;5048290;28;19947;-63
2023/01/18 05:44:26;;;;;;;;;;;18.90;41.00;;;;;;5079293;28;19925;-62
2023/01/18 05:46:53;;;;;;;;;;;18.90;41.00;;;;;;5051574;28;19921;-65
2023/01/18 05:49:20;;;;;;;;;;;18.90;41.00;;;;;;5056672;28;19986;-62
2023/01/18 05:51:47;;;;;;;;;;;18.90;41.00;;;;;;5052092;28;19921;-61
2023/01/18 05:54:15;;;;;;;;;;;18.90;41.00;;;;;;5051305;28;19924;-64
2023/01/18 05:56:42;;;;;;;;;;;18.90;41.00;;;;;;5052146;28;19955;-62
2023/01/18 05:59:08;;;;;;;;;;;18.90;41.00;;;;;;5049139;28;20009;-62
2023/01/18 06:01:35;;;;;;;;;;;18.90;40.90;;;;;;5080117;28;20117;-62
2023/01/18 06:04:02;;;;;;;;;;;18.90;40.90;;;;;;5049774;28;19924;-63
2023/01/18 06:06:29;;;;;;;;;;;18.90;40.90;;;;;;5050018;28;19928;-62
2023/01/18 06:08:56;;;;;;;;;;;18.90;40.90;;;;;;5075724;28;19921;-64
2023/01/18 06:11:24;;;;;;;;;;;18.90;40.90;;;;;;5053673;28;19924;-63
2023/01/18 06:13:51;;;;;;;;;;;18.90;40.90;;;;;;5049460;28;20591;-64
2023/01/18 06:16:18;;;;;;;;;;;18.90;40.90;;;;;;5050982;28;20309;-65
2023/01/18 06:18:44;;;;;;;;;;;18.90;40.90;;;;;;5050404;28;19967;-62
2023/01/18 06:21:11;;;;;;;;;;;18.90;40.90;;;;;;5058981;28;19940;-63
2023/01/18 06:23:38;;;;;;;;;;;18.90;41.40;;;;;;5052530;28;19932;-65
2023/01/18 06:26:05;;;;;;;;;;;18.90;40.90;;;;;;5060225;28;19979;-62
2023/01/18 06:28:36;;;;;;;;;;;18.90;40.80;;;;;;5047552;28;19933;-64
2023/01/18 06:31:04;;;;;;;;;;;18.90;40.80;;;;;;5051149;28;19928;-64
2023/01/18 06:33:31;;;;;;;;;;;18.90;40.80;;;;;;5050297;28;19931;-63
2023/01/18 06:36:00;;;;;;;;;;;18.90;40.80;;;;;;5048729;28;19921;-63
2023/01/18 06:38:27;;;;;;;;;;;18.90;40.70;;;;;;5051144;28;19921;-63
2023/01/18 06:40:54;;;;;;;;;;;18.90;40.70;;;;;;5054786;28;19932;-63
2023/01/18 06:43:21;;;;;;;;;;;18.90;40.70;;;;;;5050917;28;19920;-64
2023/01/18 06:45:53;;;;;;;;;;;18.90;40.80;;;;;;5047608;28;19928;-62
2023/01/18 06:48:20;;;;;;;;;;;18.90;40.70;;;;;;5072914;28;20011;-62
2023/01/18 06:50:47;;;;;;;;;;;18.90;40.70;;;;;;5077527;28;19967;-64
2023/01/18 06:53:14;;;;;;;;;;;18.80;40.60;;;;;;5050529;28;19925;-63
2023/01/18 06:55:41;;;;;;;;;;;18.90;40.70;;;;;;5047330;28;19924;-62
2023/01/18 06:58:07;;;;;;;;;;;18.80;40.60;;;;;;5074087;28;20351;-63
2023/01/18 07:00:34;;;;;;;;;;;18.80;40.50;;;;;;5048391;28;19921;-62
2023/01/18 07:03:03;;;;;;;;;;;18.80;40.50;;;;;;5072317;28;19933;-62
2023/01/18 07:05:29;;;;;;;;;;;18.80;40.60;;;;;;5050230;28;19930;-63
2023/01/18 07:07:56;;;;;;;;;;;18.90;40.70;;;;;;5048589;28;19928;-62
2023/01/18 07:10:23;;;;;;;;;;;18.80;40.60;;;;;;5071543;28;19960;-63
2023/01/18 07:12:50;;;;;;;;;;;18.80;40.60;;;;;;5077032;28;19975;-62
2023/01/18 07:15:16;;;;;;;;;;;18.90;40.70;;;;;;5049009;28;19932;-62
2023/01/18 07:17:44;;;;;;;;;;;18.90;40.70;;;;;;5080695;28;20363;-65
2023/01/18 07:20:14;;;;;;;;;;;18.80;40.50;;;;;;5047526;28;19964;-62
2023/01/18 07:22:41;;;;;;;;;;;18.90;40.60;;;;;;5048304;28;19941;-64
2023/01/18 07:25:09;;;;;;;;;;;18.80;40.50;;;;;;5051505;28;19986;-64
2023/01/18 07:27:36;;;;;;;;;;;18.80;40.50;;;;;;5060141;28;19921;-65
2023/01/18 07:30:03;;;;;;;;;;;18.80;40.50;;;;;;5058858;28;19925;-63
2023/01/18 07:32:30;;;;;;;;;;;18.80;40.50;;;;;;5049066;28;20418;-66
2023/01/18 07:34:57;;;;;;;;;;;18.80;40.40;;;;;;5045734;28;19924;-64
2023/01/18 07:37:25;;;;;;;;;;;18.80;40.40;;;;;;5052177;28;19927;-64
2023/01/18 07:39:52;;;;;;;;;;;18.80;40.40;;;;;;5053575;28;20045;-66
2023/01/18 07:42:19;;;;;;;;;;;18.80;40.40;;;;;;5048856;28;19925;-62
2023/01/18 07:44:45;;;;;;;;;;;18.80;40.40;;;;;;5052767;28;19974;-62
2023/01/18 07:47:12;;;;;;;;;;;18.80;40.40;;;;;;5058524;28;19924;-64
2023/01/18 07:49:40;;;;;;;;;;;18.80;40.40;;;;;;5057823;28;19986;-65
2023/01/18 07:52:06;;;;;;;;;;;18.80;40.40;;;;;;5060621;28;19928;-65
2023/01/18 07:54:35;;;;;;;;;;;18.80;40.50;;;;;;5061063;28;19965;-62
2023/01/18 07:57:01;;;;;;;;;;;18.80;40.50;;;;;;5047206;28;19921;-62
2023/01/18 07:59:29;;;;;;;;;;;18.80;40.50;;;;;;5052759;28;19921;-62
2023/01/18 08:01:56;;;;;;;;;;;18.80;40.60;;;;;;5081582;28;20341;-61
2023/01/18 08:04:23;;;;;;;;;;;18.80;40.60;;;;;;5048055;28;19932;-62
2023/01/18 08:06:50;;;;;;;;;;;18.80;40.70;;;;;;5090830;28;19924;-60
2023/01/18 08:09:17;;;;;;;;;;;18.90;40.80;;;;;;5075166;28;20026;-63
2023/01/18 08:11:45;;;;;;;;;;;18.90;40.80;;;;;;5046695;28;19970;-61
2023/01/18 08:14:12;;;;;;;;;;;18.90;40.90;;;;;;5049936;28;19925;-62
2023/01/18 08:16:39;;;;;;;;;;;18.90;40.90;;;;;;5046987;28;19975;-65
2023/01/18 08:19:06;;;;;;;;;;;18.90;40.90;;;;;;5048723;28;19928;-62
2023/01/18 08:21:32;;;;;;;;;;;18.90;40.90;;;;;;5050450;28;19960;-62
2023/01/18 08:23:59;;;;;;;;;;;18.90;40.90;;;;;;5049778;28;19982;-66
2023/01/18 08:26:26;;;;;;;;;;;18.90;41.00;;;;;;5051968;28;19921;-63
2023/01/18 08:28:55;;;;;;;;;;;18.90;41.00;;;;;;5050706;28;19932;-61
2023/01/18 08:31:21;;;;;;;;;;;18.90;41.10;;;;;;5048504;28;19921;-61
2023/01/18 08:33:49;;;;;;;;;;;18.90;41.10;;;;;;5052387;28;19975;-61
2023/01/18 08:36:17;;;;;;;;;;;19.00;41.20;;;;;;5051608;28;19987;-61
2023/01/18 08:38:46;;;;;;;;;;;19.00;41.20;;;;;;5050533;28;19921;-62
2023/01/18 08:41:13;;;;;;;;;;;19.00;41.20;;;;;;5048140;28;19952;-60
2023/01/18 08:43:40;;;;;;;;;;;19.00;41.20;;;;;;5049925;28;19987;-65
2023/01/18 08:46:08;;;;;;;;;;;19.00;41.30;;;;;;5051715;28;19928;-61
2023/01/18 08:48:35;;;;;;;;;;;19.00;41.30;;;;;;5049233;28;19920;-62
2023/01/18 08:51:02;;;;;;;;;;;19.00;41.40;;;;;;5046857;28;19924;-63
2023/01/18 08:53:29;;;;;;;;;;;19.00;41.30;;;;;;5049051;28;19943;-62
2023/01/18 08:55:55;;;;;;;;;;;19.00;41.30;;;;;;5051179;28;19921;-63
2023/01/18 08:58:22;;;;;;;;;;;19.00;41.30;;;;;;5046021;28;19972;-66
2023/01/18 09:00:49;;;;;;;;;;;19.10;41.50;;;;;;5053484;28;20011;-63
2023/01/18 09:03:20;;;;;;;;;;;19.10;41.50;;;;;;5079473;28;20131;-65
2023/01/18 09:05:46;;;;;;;;;;;19.10;41.50;;;;;;5049658;28;19927;-62
2023/01/18 09:08:13;;;;;;;;;;;19.10;41.50;;;;;;5048599;28;19954;-61
2023/01/18 09:10:40;;;;;;;;;;;19.10;41.50;;;;;;5043600;28;19939;-66
2023/01/18 09:13:07;;;;;;;;;;;19.10;41.50;;;;;;5049425;28;19951;-63
2023/01/18 09:15:34;;;;;;;;;;;19.10;41.60;;;;;;5052697;28;19944;-61
2023/01/18 09:18:04;;;;;;;;;;;19.10;41.60;;;;;;5048521;28;19987;-64
2023/01/18 09:20:34;;;;;;;;;;;19.10;41.60;;;;;;5050569;28;20359;-64
2023/01/18 09:23:03;;;;;;;;;;;19.10;41.60;;;;;;5076145;28;20303;-61
2023/01/18 09:25:30;;;;;;;;;;;19.10;41.60;;;;;;5047698;28;20317;-62
2023/01/18 09:27:57;;;;;;;;;;;19.10;41.60;;;;;;5041751;28;20280;-64
2023/01/18 09:30:23;;;;;;;;;;;19.10;41.60;;;;;;5047282;28;19920;-61
2023/01/18 09:32:50;;;;;;;;;;;19.20;41.80;;;;;;5047540;28;19925;-65
2023/01/18 09:35:17;;;;;;;;;;;19.20;41.80;;;;;;5046705;28;20290;-61
2023/01/18 09:37:45;;;;;;;;;;;19.20;41.80;;;;;;5065929;28;20317;-63
2023/01/18 09:40:14;;;;;;;;;;;19.20;41.80;;;;;;5064228;28;19964;-67
2023/01/18 09:42:43;;;;;;;;;;;19.20;41.80;;;;;;5048438;28;19940;-67
2023/01/18 09:45:24;;;;;;;;;;;19.20;41.80;;;;;;5048321;28;19940;-61
2023/01/18 09:47:52;;;;;;;;;;;19.20;41.80;;;;;;5049402;28;19925;-68
2023/01/18 09:50:19;;;;;;;;;;;19.20;41.80;;;;;;5049815;28;19920;-69
2023/01/18 09:52:50;;;;;;;;;;;19.20;41.80;;;;;;5080355;28;19927;-63
2023/01/18 09:55:18;;;;;;;;;;;19.20;41.90;;;;;;5052477;28;20128;-62
2023/01/18 09:57:47;;;;;;;;;;;19.20;41.90;;;;;;5049658;28;19967;-69
2023/01/18 10:00:15;;;;;;;;;;;19.20;41.90;;;;;;5048938;28;19921;-63
2023/01/18 10:02:42;;;;;;;;;;;19.20;41.90;;;;;;5049359;28;19921;-66
2023/01/18 10:05:09;;;;;;;;;;;19.20;41.90;;;;;;5047281;28;20420;-62
2023/01/18 10:07:37;;;;;;;;;;;19.20;41.90;;;;;;5048199;28;19929;-61
2023/01/18 10:10:06;;;;;;;;;;;19.20;41.90;;;;;;5049825;28;19994;-62
2023/01/18 10:12:33;;;;;;;;;;;19.30;42.00;;;;;;5046329;28;19925;-62
2023/01/18 10:15:02;;;;;;;;;;;19.30;42.00;;;;;;5049166;28;19928;-64
2023/01/18 10:17:34;;;;;;;;;;;19.30;42.00;;;;;;5047731;28;19920;-62
2023/01/18 10:20:01;;;;;;;;;;;19.30;42.00;;;;;;5047554;28;19968;-60
2023/01/18 10:22:28;;;;;;;;;;;19.30;42.00;;;;;;5049835;28;19924;-61
2023/01/18 10:24:58;;;;;;;;;;;19.30;42.10;;;;;;5048572;28;19952;-63
2023/01/18 10:27:38;;;;;;;;;;;19.30;42.60;;;;;;5050316;28;19963;-67
2023/01/18 10:30:20;;;;;;;;;;;19.30;42.00;;;;;;5078595;28;19928;-63
2023/01/18 10:32:48;;;;;;;;;;;19.30;42.10;;;;;;5045952;28;19926;-63
2023/01/18 10:35:15;;;;;;;;;;;19.30;42.10;;;;;;5048854;28;19928;-61
2023/01/18 10:37:44;;;;;;;;;;;19.30;42.10;;;;;;5047605;28;19983;-65
2023/01/18 10:40:13;;;;;;;;;;;19.30;42.70;;;;;;5074651;28;19978;-61
2023/01/18 10:42:44;;;;;;;;;;;19.30;42.10;;;;;;5057648;28;20353;-62
2023/01/18 10:45:18;;;;;;;;;;;19.30;42.10;;;;;;5076807;28;19981;-64
2023/01/18 10:47:45;;;;;;;;;;;19.30;42.10;;;;;;5046100;28;20375;-67
2023/01/18 10:50:13;;;;;;;;;;;19.30;42.10;;;;;;5048309;28;19921;-62
2023/01/18 10:52:40;;;;;;;;;;;19.40;42.20;;;;;;5080807;28;19921;-61
2023/01/18 10:55:07;;;;;;;;;;;19.40;42.20;;;;;;5049850;28;20281;-59
2023/01/18 10:57:34;;;;;;;;;;;19.40;42.20;;;;;;5049186;28;20434;-60
2023/01/18 11:00:11;;;;;;;;;;;19.40;41.80;;;;;;5047210;28;19928;-59
2023/01/18 11:02:37;;;;;;;;;;;19.30;41.30;;;;;;5051642;28;19920;-61
2023/01/18 11:05:05;;;;;;;;;;;19.30;40.90;;;;;;5047098;28;20312;-60
2023/01/18 11:07:32;;;;;;;;;;;19.30;40.60;;;;;;5050672;28;19967;-62
2023/01/18 11:10:05;;;;;;;;;;;19.30;40.20;;;;;;5075974;28;20018;-59
2023/01/18 11:12:40;;;;;;;;;;;19.30;40.20;;;;;;5047745;28;19955;-60
2023/01/18 11:15:28;;;;;;;;;;;19.20;39.90;;;;;;5047394;28;19968;-61
2023/01/18 11:18:02;;;;;;;;;;;19.20;39.70;;;;;;5047211;28;19925;-62
2023/01/18 11:20:33;;;;;;;;;;;19.20;39.40;;;;;;5051424;28;19925;-60
2023/01/18 11:23:01;;;;;;;;;;;19.10;39.10;;;;;;5053485;28;19924;-60
2023/01/18 11:25:34;;;;;;;;;;;19.10;39.00;;;;;;5050395;28;20194;-61
2023/01/18 11:28:01;;;;;;;;;;;19.10;38.90;;;;;;5048868;28;19933;-63
2023/01/18 11:30:29;;;;;;;;;;;19.10;38.80;;;;;;5069904;28;20445;-59
2023/01/18 11:32:58;;;;;;;;;;;19.10;38.80;;;;;;5052512;28;19925;-59
2023/01/18 11:35:27;;;;;;;;;;;19.10;38.70;;;;;;5051064;28;19966;-60
2023/01/18 11:37:54;;;;;;;;;;;19.10;38.70;;;;;;5052653;28;19924;-61
2023/01/18 11:40:26;;;;;;;;;;;19.10;38.50;;;;;;5051994;28;19978;-61
2023/01/18 11:42:56;;;;;;;;;;;19.00;38.50;;;;;;5053195;28;20434;-60
2023/01/18 11:45:23;;;;;;;;;;;19.00;38.30;;;;;;5040949;28;19921;-61
2023/01/18 11:47:53;;;;;;;;;;;19.00;38.00;;;;;;5051366;28;19929;-61
2023/01/18 11:50:23;;;;;;;;;;;19.00;37.70;;;;;;5083260;28;19920;-61
2023/01/18 11:52:51;;;;;;;;;;;19.00;37.50;;;;;;5080500;28;19929;-60
2023/01/18 11:55:20;;;;;;;;;;;19.00;37.40;;;;;;5054949;28;19926;-60
2023/01/18 11:57:47;;;;;;;;;;;18.90;37.40;;;;;;5064012;28;19920;-63
2023/01/18 12:00:14;;;;;;;;;;;18.90;37.10;;;;;;5055792;28;19932;-60
2023/01/18 12:02:54;;;;;;;;;;;18.90;37.20;;;;;;5059595;28;19928;-62
2023/01/18 12:05:28;;;;;;;;;;;18.90;37.20;;;;;;5048413;28;19952;-60
2023/01/18 12:08:00;;;;;;;;;;;18.90;37.20;;;;;;5065449;28;19924;-60
2023/01/18 12:10:27;;;;;;;;;;;18.90;37.10;;;;;;5062086;28;19936;-60
2023/01/18 12:13:00;;;;;;;;;;;18.90;37.10;;;;;;5055882;28;20150;-60
2023/01/18 12:15:33;;;;;;;;;;;18.80;37.00;;;;;;5043499;28;19959;-60
2023/01/18 12:18:05;;;;;;;;;;;18.80;36.90;;;;;;5052765;28;19920;-60
2023/01/18 12:20:34;;;;;;;;;;;18.80;36.80;;;;;;5048418;28;19929;-61
2023/01/18 12:23:07;;;;;;;;;;;18.80;36.80;;;;;;5053622;28;19921;-61
2023/01/18 12:25:54;;;;;;;;;;;18.80;36.80;;;;;;5051088;28;19920;-60
2023/01/18 12:28:23;;;;;;;;;;;18.80;36.70;;;;;;5048935;28;19921;-60
2023/01/18 12:30:53;;;;;;;;;;;18.80;36.80;;;;;;5050301;28;19932;-61
2023/01/18 12:33:23;;;;;;;;;;;18.80;36.80;;;;;;5051088;28;19924;-60
2023/01/18 12:36:06;;;;;;;;;;;18.80;36.90;;;;;;5048139;28;19925;-61
2023/01/18 12:38:33;;;;;;;;;;;18.80;37.00;;;;;;5046890;28;20310;-60
2023/01/18 12:41:16;;;;;;;;;;;18.80;37.00;;;;;;5048472;28;19947;-60
2023/01/18 12:43:44;;;;;;;;;;;18.80;37.00;;;;;;5047401;28;19932;-60
2023/01/18 12:46:13;;;;;;;;;;;18.80;37.00;;;;;;5053502;28;19940;-61
2023/01/18 12:48:43;;;;;;;;;;;18.80;37.00;;;;;;5048158;28;19921;-61
2023/01/18 12:51:13;;;;;;;;;;;18.80;37.00;;;;;;5073861;28;19975;-59
2023/01/18 12:53:40;;;;;;;;;;;18.80;37.00;;;;;;5081318;28;19921;-59
2023/01/18 12:56:09;;;;;;;;;;;18.80;37.00;;;;;;5048771;28;19971;-61
2023/01/18 12:58:35;;;;;;;;;;;18.70;36.70;;;;;;5080671;28;19924;-61
2023/01/18 13:01:04;;;;;;;;;;;18.70;36.40;;;;;;5052730;28;20118;-60
2023/01/18 13:03:32;;;;;;;;;;;18.70;36.50;;;;;;5048997;28;20378;-60
2023/01/18 13:05:59;;;;;;;;;;;18.70;36.70;;;;;;5054418;28;19994;-60
2023/01/18 13:08:39;;;;;;;;;;;18.70;36.90;;;;;;5053560;28;19920;-62
2023/01/18 13:11:06;;;;;;;;;;;18.70;37.10;;;;;;5045680;28;20347;-61
2023/01/18 13:13:33;;;;;;;;;;;18.70;37.30;;;;;;5072499;28;19968;-61
2023/01/18 13:16:01;;;;;;;;;;;18.70;37.40;;;;;;5049852;28;19936;-61
2023/01/18 13:18:30;;;;;;;;;;;18.70;38.00;;;;;;5058637;28;19924;-61
2023/01/18 13:21:01;;;;;;;;;;;18.70;37.50;;;;;;5053106;28;19948;-61
2023/01/18 13:23:30;;;;;;;;;;;18.70;37.50;;;;;;5045821;28;19956;-60
2023/01/18 13:26:00;;;;;;;;;;;18.70;37.50;;;;;;5059989;28;19920;-61
2023/01/18 13:28:27;;;;;;;;;;;18.70;37.50;;;;;;5056168;28;19920;-60
2023/01/18 13:30:55;;;;;;;;;;;18.80;37.70;;;;;;5049970;28;19947;-61
2023/01/18 13:33:23;;;;;;;;;;;18.80;37.70;;;;;;5050933;28;19932;-61
2023/01/18 13:35:50;;;;;;;;;;;18.80;37.70;;;;;;5043424;28;19920;-61
2023/01/18 13:38:18;;;;;;;;;;;18.70;37.70;;;;;;5051379;28;20290;-60
2023/01/18 13:40:51;;;;;;;;;;;18.80;37.70;;;;;;5047163;28;20355;-60
2023/01/18 13:43:33;;;;;;;;;;;18.80;37.50;;;;;;5049104;28;20431;-60
2023/01/18 13:46:01;;;;;;;;;;;18.70;37.10;;;;;;5076108;28;19920;-61
2023/01/18 13:48:40;;;;;;;;;;;18.70;36.80;;;;;;5049021;28;19939;-61
2023/01/18 13:51:08;;;;;;;;;;;18.70;36.70;;;;;;5084149;28;19921;-61
2023/01/18 13:53:48;;;;;;;;;;;18.70;36.60;;;;;;5047342;28;19925;-61
2023/01/18 13:56:22;;;;;;;;;;;18.70;36.70;;;;;;5038722;28;19921;-60
2023/01/18 13:58:54;;;;;;;;;;;18.70;36.70;;;;;;5042607;28;20286;-61
2023/01/18 14:01:21;;;;;;;;;;;18.70;36.70;;;;;;5050825;28;19928;-61
2023/01/18 14:03:49;;;;;;;;;;;18.70;36.80;;;;;;5045031;28;19932;-60
2023/01/18 14:06:22;;;;;;;;;;;18.70;36.70;;;;;;5048527;28;19932;-61
2023/01/18 14:08:49;;;;;;;;;;;18.70;36.80;;;;;;5048392;28;19986;-58
2023/01/18 14:11:20;;;;;;;;;;;18.70;36.90;;;;;;5050436;28;20006;-61
2023/01/18 14:14:01;;;;;;;;;;;18.70;37.00;;;;;;5050004;28;19948;-60
2023/01/18 14:16:29;;;;;;;;;;;18.70;37.00;;;;;;5050901;28;20357;-60
2023/01/18 14:18:57;;;;;;;;;;;18.70;37.00;;;;;;5042615;28;19931;-63
2023/01/18 14:21:24;;;;;;;;;;;18.70;37.10;;;;;;5047139;28;20027;-60
2023/01/18 14:23:58;;;;;;;;;;;18.70;37.10;;;;;;5054220;28;19952;-60
2023/01/18 14:26:26;;;;;;;;;;;18.70;37.10;;;;;;5050191;28;19920;-61
2023/01/18 14:28:53;;;;;;;;;;;18.70;37.00;;;;;;5048502;28;19990;-60
2023/01/18 14:31:23;;;;;;;;;;;18.70;37.00;;;;;;5044768;28;19974;-61
2023/01/18 14:33:50;;;;;;;;;;;18.70;37.00;;;;;;5049430;28;20354;-62
2023/01/18 14:36:20;;;;;;;;;;;18.70;37.10;;;;;;5051718;28;19928;-60
2023/01/18 14:38:47;;;;;;;;;;;18.70;37.20;;;;;;5047968;28;19975;-60
2023/01/18 14:41:15;;;;;;;;;;;18.70;37.20;;;;;;5043750;28;19940;-62
2023/01/18 14:43:43;;;;;;;;;;;18.70;37.30;;;;;;5074158;28;19932;-61
2023/01/18 14:46:10;;;;;;;;;;;18.70;37.30;;;;;;5051749;28;20310;-63
2023/01/18 14:48:40;;;;;;;;;;;18.70;37.30;;;;;;5049683;28;19928;-62
2023/01/18 14:51:06;;;;;;;;;;;18.70;37.30;;;;;;5050382;28;19932;-60